Aviation Digital Data Service (ADDS)

Output produced by METARs form (0019 UTC 24 May 2022)
found at http://www.aviationweather.gov/metar/data/
 
WBSB 240000Z 14002KT 9999 FEW005 BKN140 28/28 Q1010 NOSIG
TAF WBSB 232250Z 2400/2506 16003KT 9999 FEW014 FEW015CB 
     BECMG 2402/2404 02008KT FEW016